<?xml version="1.0" encoding="UTF-8"?>
<gpx xmlns="http://www.topografix.com/GPX/1/1" xmlns:xsi="http://www.w3.org/2001/XMLSchema-instance" version="1.1" xsi:schemaLocation="http://www.topografix.com/GPX/1/1 http://www.topografix.com/GPX/1/1/gpx.xsd">
  <metadata>
    <name>Kinetic Triathlon Festival 2022 - Sprint Aquabike</name>
  </metadata>
  <trk>
    <name>Kinetic Triathlon Festival 2022 - Sprint Aquabike</name>
    <trkseg>
      <trkpt lat="38.113845" lon="-77.832981">
        <ele>91.283253</ele>
        <time>2024-05-12T08:16:00.000Z</time>
      </trkpt>
      <trkpt lat="38.113866" lon="-77.832965">
        <ele>91.283262</ele>
        <time>2024-05-12T08:16:00.000Z</time>
      </trkpt>
      <trkpt lat="38.115357" lon="-77.831723">
        <ele>93.74725</ele>
        <time>2024-05-12T08:16:20.000Z</time>
      </trkpt>
      <trkpt lat="38.115906" lon="-77.831442">
        <ele>95.379954</ele>
        <time>2024-05-12T08:16:27.000Z</time>
      </trkpt>
      <trkpt lat="38.116281" lon="-77.831239">
        <ele>96.455636</ele>
        <time>2024-05-12T08:16:32.000Z</time>
      </trkpt>
      <trkpt lat="38.116458" lon="-77.831061">
        <ele>96.941578</ele>
        <time>2024-05-12T08:16:35.000Z</time>
      </trkpt>
      <trkpt lat="38.117259" lon="-77.829856">
        <ele>99.59889</ele>
        <time>2024-05-12T08:16:49.000Z</time>
      </trkpt>
      <trkpt lat="38.11768" lon="-77.829332">
        <ele>101.075575</ele>
        <time>2024-05-12T08:16:56.000Z</time>
      </trkpt>
      <trkpt lat="38.11793" lon="-77.828897">
        <ele>102.22666</ele>
        <time>2024-05-12T08:17:01.000Z</time>
      </trkpt>
      <trkpt lat="38.118023" lon="-77.828498">
        <ele>103.099125</ele>
        <time>2024-05-12T08:17:05.000Z</time>
      </trkpt>
      <trkpt lat="38.118021" lon="-77.826553">
        <ele>107.280528</ele>
        <time>2024-05-12T08:17:22.000Z</time>
      </trkpt>
      <trkpt lat="38.118133" lon="-77.825719">
        <ele>109.114268</ele>
        <time>2024-05-12T08:17:29.000Z</time>
      </trkpt>
      <trkpt lat="38.118145" lon="-77.824849">
        <ele>110.277913</ele>
        <time>2024-05-12T08:17:37.000Z</time>
      </trkpt>
      <trkpt lat="38.118198" lon="-77.824503">
        <ele>110.544601</ele>
        <time>2024-05-12T08:17:40.000Z</time>
      </trkpt>
      <trkpt lat="38.118463" lon="-77.82395">
        <ele>111.038917</ele>
        <time>2024-05-12T08:17:46.000Z</time>
      </trkpt>
      <trkpt lat="38.119173" lon="-77.823172">
        <ele>111.598168</ele>
        <time>2024-05-12T08:17:56.000Z</time>
      </trkpt>
      <trkpt lat="38.119386" lon="-77.823006">
        <ele>111.572509</ele>
        <time>2024-05-12T08:17:59.000Z</time>
      </trkpt>
      <trkpt lat="38.119772" lon="-77.822877">
        <ele>111.533147</ele>
        <time>2024-05-12T08:18:03.000Z</time>
      </trkpt>
      <trkpt lat="38.119977" lon="-77.822876">
        <ele>111.512905</ele>
        <time>2024-05-12T08:18:05.000Z</time>
      </trkpt>
      <trkpt lat="38.1202" lon="-77.82296">
        <ele>111.489875</ele>
        <time>2024-05-12T08:18:08.000Z</time>
      </trkpt>
      <trkpt lat="38.120627" lon="-77.823183">
        <ele>111.45685</ele>
        <time>2024-05-12T08:18:13.000Z</time>
      </trkpt>
      <trkpt lat="38.121132" lon="-77.823289">
        <ele>111.499769</ele>
        <time>2024-05-12T08:18:19.000Z</time>
      </trkpt>
      <trkpt lat="38.121899" lon="-77.823195">
        <ele>111.565819</ele>
        <time>2024-05-12T08:18:28.000Z</time>
      </trkpt>
      <trkpt lat="38.122727" lon="-77.82327">
        <ele>111.841304</ele>
        <time>2024-05-12T08:18:37.000Z</time>
      </trkpt>
      <trkpt lat="38.123051" lon="-77.823241">
        <ele>112.031124</ele>
        <time>2024-05-12T08:18:41.000Z</time>
      </trkpt>
      <trkpt lat="38.124201" lon="-77.822907">
        <ele>112.727733</ele>
        <time>2024-05-12T08:18:54.000Z</time>
      </trkpt>
      <trkpt lat="38.12479" lon="-77.822481">
        <ele>112.976285</ele>
        <time>2024-05-12T08:19:02.000Z</time>
      </trkpt>
      <trkpt lat="38.12531" lon="-77.822188">
        <ele>113.184993</ele>
        <time>2024-05-12T08:19:08.000Z</time>
      </trkpt>
      <trkpt lat="38.12636" lon="-77.821244">
        <ele>113.649325</ele>
        <time>2024-05-12T08:19:22.000Z</time>
      </trkpt>
      <trkpt lat="38.128388" lon="-77.820218">
        <ele>114.439256</ele>
        <time>2024-05-12T08:19:46.000Z</time>
      </trkpt>
      <trkpt lat="38.12935" lon="-77.819608">
        <ele>114.749593</ele>
        <time>2024-05-12T08:19:58.000Z</time>
      </trkpt>
      <trkpt lat="38.130262" lon="-77.819345">
        <ele>114.937919</ele>
        <time>2024-05-12T08:20:08.000Z</time>
      </trkpt>
      <trkpt lat="38.130969" lon="-77.818915">
        <ele>115.099703</ele>
        <time>2024-05-12T08:20:17.000Z</time>
      </trkpt>
      <trkpt lat="38.131214" lon="-77.8189">
        <ele>115.147636</ele>
        <time>2024-05-12T08:20:20.000Z</time>
      </trkpt>
      <trkpt lat="38.13184" lon="-77.818982">
        <ele>115.281571</ele>
        <time>2024-05-12T08:20:27.000Z</time>
      </trkpt>
      <trkpt lat="38.133021" lon="-77.818823">
        <ele>115.566178</ele>
        <time>2024-05-12T08:20:40.000Z</time>
      </trkpt>
      <trkpt lat="38.133383" lon="-77.81867">
        <ele>115.666395</ele>
        <time>2024-05-12T08:20:44.000Z</time>
      </trkpt>
      <trkpt lat="38.134931" lon="-77.817792">
        <ele>116.174694</ele>
        <time>2024-05-12T08:21:03.000Z</time>
      </trkpt>
      <trkpt lat="38.135361" lon="-77.817608">
        <ele>116.324758</ele>
        <time>2024-05-12T08:21:08.000Z</time>
      </trkpt>
      <trkpt lat="38.135808" lon="-77.817554">
        <ele>116.45641</ele>
        <time>2024-05-12T08:21:13.000Z</time>
      </trkpt>
      <trkpt lat="38.136658" lon="-77.817765">
        <ele>116.543234</ele>
        <time>2024-05-12T08:21:23.000Z</time>
      </trkpt>
      <trkpt lat="38.13747" lon="-77.817809">
        <ele>116.625809</ele>
        <time>2024-05-12T08:21:32.000Z</time>
      </trkpt>
      <trkpt lat="38.138298" lon="-77.818112">
        <ele>117.014092</ele>
        <time>2024-05-12T08:21:42.000Z</time>
      </trkpt>
      <trkpt lat="38.13906" lon="-77.818297">
        <ele>117.38662</ele>
        <time>2024-05-12T08:21:51.000Z</time>
      </trkpt>
      <trkpt lat="38.139439" lon="-77.81828">
        <ele>117.561084</ele>
        <time>2024-05-12T08:21:55.000Z</time>
      </trkpt>
      <trkpt lat="38.140186" lon="-77.817949">
        <ele>117.869791</ele>
        <time>2024-05-12T08:22:04.000Z</time>
      </trkpt>
      <trkpt lat="38.141289" lon="-77.817383">
        <ele>117.927511</ele>
        <time>2024-05-12T08:22:17.000Z</time>
      </trkpt>
      <trkpt lat="38.141876" lon="-77.81687">
        <ele>117.308991</ele>
        <time>2024-05-12T08:22:25.000Z</time>
      </trkpt>
      <trkpt lat="38.142219" lon="-77.816455">
        <ele>116.897993</ele>
        <time>2024-05-12T08:22:30.000Z</time>
      </trkpt>
      <trkpt lat="38.14268" lon="-77.815676">
        <ele>116.485833</ele>
        <time>2024-05-12T08:22:39.000Z</time>
      </trkpt>
      <trkpt lat="38.142819" lon="-77.815361">
        <ele>116.381259</ele>
        <time>2024-05-12T08:22:42.000Z</time>
      </trkpt>
      <trkpt lat="38.142951" lon="-77.814771">
        <ele>116.207456</ele>
        <time>2024-05-12T08:22:47.000Z</time>
      </trkpt>
      <trkpt lat="38.143155" lon="-77.813722">
        <ele>116.403181</ele>
        <time>2024-05-12T08:22:56.000Z</time>
      </trkpt>
      <trkpt lat="38.143582" lon="-77.814382">
        <ele>117.258378</ele>
        <time>2024-05-12T08:23:03.000Z</time>
      </trkpt>
      <trkpt lat="38.144321" lon="-77.815447">
        <ele>118.709644</ele>
        <time>2024-05-12T08:23:15.000Z</time>
      </trkpt>
      <trkpt lat="38.144725" lon="-77.815896">
        <ele>119.477155</ele>
        <time>2024-05-12T08:23:21.000Z</time>
      </trkpt>
      <trkpt lat="38.145345" lon="-77.816454">
        <ele>120.561653</ele>
        <time>2024-05-12T08:23:29.000Z</time>
      </trkpt>
      <trkpt lat="38.146193" lon="-77.81697">
        <ele>121.30948</ele>
        <time>2024-05-12T08:23:39.000Z</time>
      </trkpt>
      <trkpt lat="38.14714" lon="-77.817285">
        <ele>121.941623</ele>
        <time>2024-05-12T08:23:50.000Z</time>
      </trkpt>
      <trkpt lat="38.148837" lon="-77.817629">
        <ele>121.926562</ele>
        <time>2024-05-12T08:24:09.000Z</time>
      </trkpt>
      <trkpt lat="38.149877" lon="-77.817918">
        <ele>121.842913</ele>
        <time>2024-05-12T08:24:21.000Z</time>
      </trkpt>
      <trkpt lat="38.150487" lon="-77.818203">
        <ele>121.78589</ele>
        <time>2024-05-12T08:24:28.000Z</time>
      </trkpt>
      <trkpt lat="38.151188" lon="-77.818733">
        <ele>122.223145</ele>
        <time>2024-05-12T08:24:37.000Z</time>
      </trkpt>
      <trkpt lat="38.151481" lon="-77.819024">
        <ele>122.522963</ele>
        <time>2024-05-12T08:24:41.000Z</time>
      </trkpt>
      <trkpt lat="38.152024" lon="-77.819588">
        <ele>123.092518</ele>
        <time>2024-05-12T08:24:49.000Z</time>
      </trkpt>
      <trkpt lat="38.152166" lon="-77.819757">
        <ele>123.265526</ele>
        <time>2024-05-12T08:24:51.000Z</time>
      </trkpt>
      <trkpt lat="38.15363" lon="-77.821238">
        <ele>125.466486</ele>
        <time>2024-05-12T08:25:12.000Z</time>
      </trkpt>
      <trkpt lat="38.15463" lon="-77.82205">
        <ele>125.688647</ele>
        <time>2024-05-12T08:25:25.000Z</time>
      </trkpt>
      <trkpt lat="38.155939" lon="-77.822826">
        <ele>125.416644</ele>
        <time>2024-05-12T08:25:41.000Z</time>
      </trkpt>
      <trkpt lat="38.15814" lon="-77.82384">
        <ele>125.168671</ele>
        <time>2024-05-12T08:26:07.000Z</time>
      </trkpt>
      <trkpt lat="38.159542" lon="-77.824506">
        <ele>126.460722</ele>
        <time>2024-05-12T08:26:24.000Z</time>
      </trkpt>
      <trkpt lat="38.161055" lon="-77.825497">
        <ele>128.18271</ele>
        <time>2024-05-12T08:26:43.000Z</time>
      </trkpt>
      <trkpt lat="38.162114" lon="-77.826003">
        <ele>129.057222</ele>
        <time>2024-05-12T08:26:56.000Z</time>
      </trkpt>
      <trkpt lat="38.162974" lon="-77.826466">
        <ele>129.446522</ele>
        <time>2024-05-12T08:27:06.000Z</time>
      </trkpt>
      <trkpt lat="38.163468" lon="-77.826831">
        <ele>129.59258</ele>
        <time>2024-05-12T08:27:12.000Z</time>
      </trkpt>
      <trkpt lat="38.163868" lon="-77.827212">
        <ele>129.458319</ele>
        <time>2024-05-12T08:27:18.000Z</time>
      </trkpt>
      <trkpt lat="38.164231" lon="-77.827726">
        <ele>129.306519</ele>
        <time>2024-05-12T08:27:24.000Z</time>
      </trkpt>
      <trkpt lat="38.164258" lon="-77.827747">
        <ele>129.30035</ele>
        <time>2024-05-12T08:27:24.000Z</time>
      </trkpt>
      <trkpt lat="38.164781" lon="-77.828535">
        <ele>128.790229</ele>
        <time>2024-05-12T08:27:33.000Z</time>
      </trkpt>
      <trkpt lat="38.164959" lon="-77.829063">
        <ele>128.087732</ele>
        <time>2024-05-12T08:27:38.000Z</time>
      </trkpt>
      <trkpt lat="38.164983" lon="-77.829128">
        <ele>127.985448</ele>
        <time>2024-05-12T08:27:39.000Z</time>
      </trkpt>
      <trkpt lat="38.165088" lon="-77.829745">
        <ele>127.206701</ele>
        <time>2024-05-12T08:27:45.000Z</time>
      </trkpt>
      <trkpt lat="38.165128" lon="-77.83059">
        <ele>126.048516</ele>
        <time>2024-05-12T08:27:52.000Z</time>
      </trkpt>
      <trkpt lat="38.16509" lon="-77.830853">
        <ele>125.484181</ele>
        <time>2024-05-12T08:27:54.000Z</time>
      </trkpt>
      <trkpt lat="38.165028" lon="-77.831295">
        <ele>124.522879</ele>
        <time>2024-05-12T08:27:58.000Z</time>
      </trkpt>
      <trkpt lat="38.165004" lon="-77.831458">
        <ele>124.154619</ele>
        <time>2024-05-12T08:27:59.000Z</time>
      </trkpt>
      <trkpt lat="38.165001" lon="-77.831498">
        <ele>124.061606</ele>
        <time>2024-05-12T08:27:59.000Z</time>
      </trkpt>
      <trkpt lat="38.164959" lon="-77.832065">
        <ele>122.87603</ele>
        <time>2024-05-12T08:28:04.000Z</time>
      </trkpt>
      <trkpt lat="38.165011" lon="-77.832914">
        <ele>121.044414</ele>
        <time>2024-05-12T08:28:11.000Z</time>
      </trkpt>
      <trkpt lat="38.165097" lon="-77.834155">
        <ele>118.357893</ele>
        <time>2024-05-12T08:28:22.000Z</time>
      </trkpt>
      <trkpt lat="38.16533" lon="-77.835753">
        <ele>115.306007</ele>
        <time>2024-05-12T08:28:36.000Z</time>
      </trkpt>
      <trkpt lat="38.165303" lon="-77.836249">
        <ele>114.537005</ele>
        <time>2024-05-12T08:28:40.000Z</time>
      </trkpt>
      <trkpt lat="38.165349" lon="-77.836398">
        <ele>114.310902</ele>
        <time>2024-05-12T08:28:41.000Z</time>
      </trkpt>
      <trkpt lat="38.165654" lon="-77.836885">
        <ele>113.347636</ele>
        <time>2024-05-12T08:28:46.000Z</time>
      </trkpt>
      <trkpt lat="38.166228" lon="-77.837424">
        <ele>113.048642</ele>
        <time>2024-05-12T08:28:54.000Z</time>
      </trkpt>
      <trkpt lat="38.16667" lon="-77.837881">
        <ele>113.176969</ele>
        <time>2024-05-12T08:29:00.000Z</time>
      </trkpt>
      <trkpt lat="38.167181" lon="-77.838598">
        <ele>113.349093</ele>
        <time>2024-05-12T08:29:08.000Z</time>
      </trkpt>
      <trkpt lat="38.168165" lon="-77.839636">
        <ele>113.525722</ele>
        <time>2024-05-12T08:29:22.000Z</time>
      </trkpt>
      <trkpt lat="38.168495" lon="-77.83984">
        <ele>113.576407</ele>
        <time>2024-05-12T08:29:26.000Z</time>
      </trkpt>
      <trkpt lat="38.170027" lon="-77.840515">
        <ele>112.840445</ele>
        <time>2024-05-12T08:29:44.000Z</time>
      </trkpt>
      <trkpt lat="38.170913" lon="-77.840988">
        <ele>112.317588</ele>
        <time>2024-05-12T08:29:55.000Z</time>
      </trkpt>
      <trkpt lat="38.171748" lon="-77.841448">
        <ele>111.814152</ele>
        <time>2024-05-12T08:30:05.000Z</time>
      </trkpt>
      <trkpt lat="38.172358" lon="-77.841778">
        <ele>110.594635</ele>
        <time>2024-05-12T08:30:12.000Z</time>
      </trkpt>
      <trkpt lat="38.172749" lon="-77.842024">
        <ele>109.534448</ele>
        <time>2024-05-12T08:30:17.000Z</time>
      </trkpt>
      <trkpt lat="38.173527" lon="-77.842658">
        <ele>107.267927</ele>
        <time>2024-05-12T08:30:27.000Z</time>
      </trkpt>
      <trkpt lat="38.175221" lon="-77.844071">
        <ele>98.784482</ele>
        <time>2024-05-12T08:30:50.000Z</time>
      </trkpt>
      <trkpt lat="38.175835" lon="-77.845001">
        <ele>96.425296</ele>
        <time>2024-05-12T08:31:01.000Z</time>
      </trkpt>
      <trkpt lat="38.176475" lon="-77.845362">
        <ele>95.144016</ele>
        <time>2024-05-12T08:31:09.000Z</time>
      </trkpt>
      <trkpt lat="38.177162" lon="-77.845709">
        <ele>97.046239</ele>
        <time>2024-05-12T08:31:17.000Z</time>
      </trkpt>
      <trkpt lat="38.177759" lon="-77.846131">
        <ele>98.75996</ele>
        <time>2024-05-12T08:31:25.000Z</time>
      </trkpt>
      <trkpt lat="38.179894" lon="-77.848177">
        <ele>110.789274</ele>
        <time>2024-05-12T08:31:55.000Z</time>
      </trkpt>
      <trkpt lat="38.182361" lon="-77.850547">
        <ele>120.60944</ele>
        <time>2024-05-12T08:32:29.000Z</time>
      </trkpt>
      <trkpt lat="38.182888" lon="-77.85114">
        <ele>121.697419</ele>
        <time>2024-05-12T08:32:37.000Z</time>
      </trkpt>
      <trkpt lat="38.183258" lon="-77.851487">
        <ele>122.382112</ele>
        <time>2024-05-12T08:32:42.000Z</time>
      </trkpt>
      <trkpt lat="38.184041" lon="-77.85208">
        <ele>123.789376</ele>
        <time>2024-05-12T08:32:52.000Z</time>
      </trkpt>
      <trkpt lat="38.184418" lon="-77.852316">
        <ele>124.429206</ele>
        <time>2024-05-12T08:32:57.000Z</time>
      </trkpt>
      <trkpt lat="38.185266" lon="-77.85274">
        <ele>125.813721</ele>
        <time>2024-05-12T08:33:07.000Z</time>
      </trkpt>
      <trkpt lat="38.187951" lon="-77.853726">
        <ele>130.121433</ele>
        <time>2024-05-12T08:33:38.000Z</time>
      </trkpt>
      <trkpt lat="38.188799" lon="-77.854181">
        <ele>130.728519</ele>
        <time>2024-05-12T08:33:48.000Z</time>
      </trkpt>
      <trkpt lat="38.186864" lon="-77.857453">
        <ele>125.479463</ele>
        <time>2024-05-12T08:34:24.000Z</time>
      </trkpt>
      <trkpt lat="38.186434" lon="-77.858066">
        <ele>124.730718</ele>
        <time>2024-05-12T08:34:31.000Z</time>
      </trkpt>
      <trkpt lat="38.186202" lon="-77.858306">
        <ele>124.556169</ele>
        <time>2024-05-12T08:34:34.000Z</time>
      </trkpt>
      <trkpt lat="38.185771" lon="-77.858521">
        <ele>124.295654</ele>
        <time>2024-05-12T08:34:39.000Z</time>
      </trkpt>
      <trkpt lat="38.185418" lon="-77.858617">
        <ele>124.082036</ele>
        <time>2024-05-12T08:34:43.000Z</time>
      </trkpt>
      <trkpt lat="38.184731" lon="-77.858709">
        <ele>123.785131</ele>
        <time>2024-05-12T08:34:51.000Z</time>
      </trkpt>
      <trkpt lat="38.183169" lon="-77.858896">
        <ele>123.439907</ele>
        <time>2024-05-12T08:35:08.000Z</time>
      </trkpt>
      <trkpt lat="38.181881" lon="-77.859056">
        <ele>122.648491</ele>
        <time>2024-05-12T08:35:22.000Z</time>
      </trkpt>
      <trkpt lat="38.179367" lon="-77.859383">
        <ele>119.490965</ele>
        <time>2024-05-12T08:35:50.000Z</time>
      </trkpt>
      <trkpt lat="38.178396" lon="-77.859518">
        <ele>118.267129</ele>
        <time>2024-05-12T08:36:01.000Z</time>
      </trkpt>
      <trkpt lat="38.177306" lon="-77.859643">
        <ele>117.077909</ele>
        <time>2024-05-12T08:36:13.000Z</time>
      </trkpt>
      <trkpt lat="38.177078" lon="-77.859683">
        <ele>116.847627</ele>
        <time>2024-05-12T08:36:16.000Z</time>
      </trkpt>
      <trkpt lat="38.176702" lon="-77.859765">
        <ele>116.488968</ele>
        <time>2024-05-12T08:36:20.000Z</time>
      </trkpt>
      <trkpt lat="38.176417" lon="-77.859912">
        <ele>116.183599</ele>
        <time>2024-05-12T08:36:23.000Z</time>
      </trkpt>
      <trkpt lat="38.176176" lon="-77.860091">
        <ele>115.92126</ele>
        <time>2024-05-12T08:36:26.000Z</time>
      </trkpt>
      <trkpt lat="38.175894" lon="-77.860445">
        <ele>115.69891</ele>
        <time>2024-05-12T08:36:30.000Z</time>
      </trkpt>
      <trkpt lat="38.174914" lon="-77.862103">
        <ele>114.818544</ele>
        <time>2024-05-12T08:36:48.000Z</time>
      </trkpt>
      <trkpt lat="38.174486" lon="-77.862655">
        <ele>114.261894</ele>
        <time>2024-05-12T08:36:55.000Z</time>
      </trkpt>
      <trkpt lat="38.174137" lon="-77.86295">
        <ele>113.881274</ele>
        <time>2024-05-12T08:37:00.000Z</time>
      </trkpt>
      <trkpt lat="38.172597" lon="-77.863915">
        <ele>112.179513</ele>
        <time>2024-05-12T08:37:19.000Z</time>
      </trkpt>
      <trkpt lat="38.171855" lon="-77.86422">
        <ele>111.484088</ele>
        <time>2024-05-12T08:37:28.000Z</time>
      </trkpt>
      <trkpt lat="38.169141" lon="-77.864602">
        <ele>110.219647</ele>
        <time>2024-05-12T08:37:58.000Z</time>
      </trkpt>
      <trkpt lat="38.168488" lon="-77.864548">
        <ele>109.658299</ele>
        <time>2024-05-12T08:38:05.000Z</time>
      </trkpt>
      <trkpt lat="38.167552" lon="-77.864254">
        <ele>107.739869</ele>
        <time>2024-05-12T08:38:16.000Z</time>
      </trkpt>
      <trkpt lat="38.166705" lon="-77.863898">
        <ele>105.870748</ele>
        <time>2024-05-12T08:38:26.000Z</time>
      </trkpt>
      <trkpt lat="38.166425" lon="-77.863793">
        <ele>105.672583</ele>
        <time>2024-05-12T08:38:29.000Z</time>
      </trkpt>
      <trkpt lat="38.166114" lon="-77.863746">
        <ele>105.539536</ele>
        <time>2024-05-12T08:38:32.000Z</time>
      </trkpt>
      <trkpt lat="38.164829" lon="-77.863763">
        <ele>105.009808</ele>
        <time>2024-05-12T08:38:46.000Z</time>
      </trkpt>
      <trkpt lat="38.163932" lon="-77.863783">
        <ele>104.678562</ele>
        <time>2024-05-12T08:38:56.000Z</time>
      </trkpt>
      <trkpt lat="38.162833" lon="-77.863799">
        <ele>103.871168</ele>
        <time>2024-05-12T08:39:08.000Z</time>
      </trkpt>
      <trkpt lat="38.161313" lon="-77.863827">
        <ele>100.630473</ele>
        <time>2024-05-12T08:39:25.000Z</time>
      </trkpt>
      <trkpt lat="38.160927" lon="-77.863877">
        <ele>99.302566</ele>
        <time>2024-05-12T08:39:29.000Z</time>
      </trkpt>
      <trkpt lat="38.160722" lon="-77.863957">
        <ele>98.558163</ele>
        <time>2024-05-12T08:39:31.000Z</time>
      </trkpt>
      <trkpt lat="38.159898" lon="-77.861562">
        <ele>92.971802</ele>
        <time>2024-05-12T08:39:54.000Z</time>
      </trkpt>
      <trkpt lat="38.159657" lon="-77.86042">
        <ele>91.602605</ele>
        <time>2024-05-12T08:40:04.000Z</time>
      </trkpt>
      <trkpt lat="38.159481" lon="-77.859178">
        <ele>94.082112</ele>
        <time>2024-05-12T08:40:15.000Z</time>
      </trkpt>
      <trkpt lat="38.159412" lon="-77.858462">
        <ele>95.635217</ele>
        <time>2024-05-12T08:40:21.000Z</time>
      </trkpt>
      <trkpt lat="38.159428" lon="-77.857882">
        <ele>96.924398</ele>
        <time>2024-05-12T08:40:26.000Z</time>
      </trkpt>
      <trkpt lat="38.159544" lon="-77.857258">
        <ele>98.467656</ele>
        <time>2024-05-12T08:40:32.000Z</time>
      </trkpt>
      <trkpt lat="38.159732" lon="-77.856752">
        <ele>99.772932</ele>
        <time>2024-05-12T08:40:37.000Z</time>
      </trkpt>
      <trkpt lat="38.159928" lon="-77.856313">
        <ele>100.941478</ele>
        <time>2024-05-12T08:40:41.000Z</time>
      </trkpt>
      <trkpt lat="38.160165" lon="-77.855968">
        <ele>101.981599</ele>
        <time>2024-05-12T08:40:45.000Z</time>
      </trkpt>
      <trkpt lat="38.161433" lon="-77.854693">
        <ele>105.387228</ele>
        <time>2024-05-12T08:41:03.000Z</time>
      </trkpt>
      <trkpt lat="38.162054" lon="-77.85395">
        <ele>106.845518</ele>
        <time>2024-05-12T08:41:12.000Z</time>
      </trkpt>
      <trkpt lat="38.162354" lon="-77.853563">
        <ele>107.574141</ele>
        <time>2024-05-12T08:41:17.000Z</time>
      </trkpt>
      <trkpt lat="38.162697" lon="-77.85278">
        <ele>108.659262</ele>
        <time>2024-05-12T08:41:25.000Z</time>
      </trkpt>
      <trkpt lat="38.162959" lon="-77.852064">
        <ele>108.880242</ele>
        <time>2024-05-12T08:41:32.000Z</time>
      </trkpt>
      <trkpt lat="38.163339" lon="-77.850799">
        <ele>109.264679</ele>
        <time>2024-05-12T08:41:44.000Z</time>
      </trkpt>
      <trkpt lat="38.163596" lon="-77.849629">
        <ele>110.025526</ele>
        <time>2024-05-12T08:41:55.000Z</time>
      </trkpt>
      <trkpt lat="38.163876" lon="-77.848138">
        <ele>111.17205</ele>
        <time>2024-05-12T08:42:08.000Z</time>
      </trkpt>
      <trkpt lat="38.164101" lon="-77.846681">
        <ele>112.668892</ele>
        <time>2024-05-12T08:42:21.000Z</time>
      </trkpt>
      <trkpt lat="38.164209" lon="-77.843696">
        <ele>114.198496</ele>
        <time>2024-05-12T08:42:47.000Z</time>
      </trkpt>
      <trkpt lat="38.164244" lon="-77.843458">
        <ele>114.286792</ele>
        <time>2024-05-12T08:42:49.000Z</time>
      </trkpt>
      <trkpt lat="38.164583" lon="-77.842254">
        <ele>114.746623</ele>
        <time>2024-05-12T08:43:00.000Z</time>
      </trkpt>
      <trkpt lat="38.164611" lon="-77.840468">
        <ele>114.530358</ele>
        <time>2024-05-12T08:43:16.000Z</time>
      </trkpt>
      <trkpt lat="38.164621" lon="-77.840031">
        <ele>114.409092</ele>
        <time>2024-05-12T08:43:20.000Z</time>
      </trkpt>
      <trkpt lat="38.164791" lon="-77.839151">
        <ele>114.156941</ele>
        <time>2024-05-12T08:43:28.000Z</time>
      </trkpt>
      <trkpt lat="38.164825" lon="-77.838956">
        <ele>114.105251</ele>
        <time>2024-05-12T08:43:30.000Z</time>
      </trkpt>
      <trkpt lat="38.165038" lon="-77.837157">
        <ele>113.815441</ele>
        <time>2024-05-12T08:43:46.000Z</time>
      </trkpt>
      <trkpt lat="38.165302" lon="-77.836257">
        <ele>115.055105</ele>
        <time>2024-05-12T08:43:54.000Z</time>
      </trkpt>
      <trkpt lat="38.165329" lon="-77.835744">
        <ele>115.69488</ele>
        <time>2024-05-12T08:43:58.000Z</time>
      </trkpt>
      <trkpt lat="38.165098" lon="-77.834146">
        <ele>118.53697</ele>
        <time>2024-05-12T08:44:12.000Z</time>
      </trkpt>
      <trkpt lat="38.164966" lon="-77.832056">
        <ele>122.955577</ele>
        <time>2024-05-12T08:44:30.000Z</time>
      </trkpt>
      <trkpt lat="38.165011" lon="-77.8315">
        <ele>124.132249</ele>
        <time>2024-05-12T08:44:35.000Z</time>
      </trkpt>
      <trkpt lat="38.165001" lon="-77.831462">
        <ele>124.224572</ele>
        <time>2024-05-12T08:44:35.000Z</time>
      </trkpt>
      <trkpt lat="38.165028" lon="-77.831294">
        <ele>124.590075</ele>
        <time>2024-05-12T08:44:36.000Z</time>
      </trkpt>
      <trkpt lat="38.165097" lon="-77.830852">
        <ele>125.544176</ele>
        <time>2024-05-12T08:44:40.000Z</time>
      </trkpt>
      <trkpt lat="38.165133" lon="-77.830587">
        <ele>126.10428</ele>
        <time>2024-05-12T08:44:42.000Z</time>
      </trkpt>
      <trkpt lat="38.165095" lon="-77.829737">
        <ele>127.223545</ele>
        <time>2024-05-12T08:44:49.000Z</time>
      </trkpt>
      <trkpt lat="38.164975" lon="-77.829136">
        <ele>128.007814</ele>
        <time>2024-05-12T08:44:54.000Z</time>
      </trkpt>
      <trkpt lat="38.164967" lon="-77.829055">
        <ele>128.11084</ele>
        <time>2024-05-12T08:44:55.000Z</time>
      </trkpt>
      <trkpt lat="38.164776" lon="-77.828532">
        <ele>128.818323</ele>
        <time>2024-05-12T08:45:00.000Z</time>
      </trkpt>
      <trkpt lat="38.164243" lon="-77.827744">
        <ele>129.292666</ele>
        <time>2024-05-12T08:45:09.000Z</time>
      </trkpt>
      <trkpt lat="38.164241" lon="-77.827721">
        <ele>129.299267</ele>
        <time>2024-05-12T08:45:09.000Z</time>
      </trkpt>
      <trkpt lat="38.163867" lon="-77.82721">
        <ele>129.462325</ele>
        <time>2024-05-12T08:45:15.000Z</time>
      </trkpt>
      <trkpt lat="38.163483" lon="-77.826831">
        <ele>129.606539</ele>
        <time>2024-05-12T08:45:20.000Z</time>
      </trkpt>
      <trkpt lat="38.162974" lon="-77.826466">
        <ele>129.440954</ele>
        <time>2024-05-12T08:45:26.000Z</time>
      </trkpt>
      <trkpt lat="38.162122" lon="-77.82599">
        <ele>129.062656</ele>
        <time>2024-05-12T08:45:36.000Z</time>
      </trkpt>
      <trkpt lat="38.16104" lon="-77.825499">
        <ele>128.179011</ele>
        <time>2024-05-12T08:45:49.000Z</time>
      </trkpt>
      <trkpt lat="38.15953" lon="-77.824514">
        <ele>126.457553</ele>
        <time>2024-05-12T08:46:08.000Z</time>
      </trkpt>
      <trkpt lat="38.15815" lon="-77.823832">
        <ele>125.186522</ele>
        <time>2024-05-12T08:46:24.000Z</time>
      </trkpt>
      <trkpt lat="38.15594" lon="-77.82284">
        <ele>125.419348</ele>
        <time>2024-05-12T08:46:50.000Z</time>
      </trkpt>
      <trkpt lat="38.154623" lon="-77.822041">
        <ele>125.6813</ele>
        <time>2024-05-12T08:47:06.000Z</time>
      </trkpt>
      <trkpt lat="38.153635" lon="-77.821249">
        <ele>125.491525</ele>
        <time>2024-05-12T08:47:19.000Z</time>
      </trkpt>
      <trkpt lat="38.152177" lon="-77.819759">
        <ele>123.265484</ele>
        <time>2024-05-12T08:47:40.000Z</time>
      </trkpt>
      <trkpt lat="38.152037" lon="-77.819587">
        <ele>123.105764</ele>
        <time>2024-05-12T08:47:42.000Z</time>
      </trkpt>
      <trkpt lat="38.151479" lon="-77.819015">
        <ele>122.521202</ele>
        <time>2024-05-12T08:47:50.000Z</time>
      </trkpt>
      <trkpt lat="38.15119" lon="-77.818746">
        <ele>122.213456</ele>
        <time>2024-05-12T08:47:54.000Z</time>
      </trkpt>
      <trkpt lat="38.150478" lon="-77.818208">
        <ele>121.796993</ele>
        <time>2024-05-12T08:48:03.000Z</time>
      </trkpt>
      <trkpt lat="38.149865" lon="-77.817907">
        <ele>121.847398</ele>
        <time>2024-05-12T08:48:10.000Z</time>
      </trkpt>
      <trkpt lat="38.148829" lon="-77.817634">
        <ele>121.922192</ele>
        <time>2024-05-12T08:48:22.000Z</time>
      </trkpt>
      <trkpt lat="38.147139" lon="-77.817278">
        <ele>121.926204</ele>
        <time>2024-05-12T08:48:41.000Z</time>
      </trkpt>
      <trkpt lat="38.146198" lon="-77.81697">
        <ele>121.312415</ele>
        <time>2024-05-12T08:48:52.000Z</time>
      </trkpt>
      <trkpt lat="38.145357" lon="-77.816454">
        <ele>120.550246</ele>
        <time>2024-05-12T08:49:02.000Z</time>
      </trkpt>
      <trkpt lat="38.144725" lon="-77.815893">
        <ele>119.4758</ele>
        <time>2024-05-12T08:49:11.000Z</time>
      </trkpt>
      <trkpt lat="38.14433" lon="-77.815449">
        <ele>118.715378</ele>
        <time>2024-05-12T08:49:17.000Z</time>
      </trkpt>
      <trkpt lat="38.143583" lon="-77.814382">
        <ele>117.254429</ele>
        <time>2024-05-12T08:49:29.000Z</time>
      </trkpt>
      <trkpt lat="38.143163" lon="-77.813706">
        <ele>116.383568</ele>
        <time>2024-05-12T08:49:37.000Z</time>
      </trkpt>
      <trkpt lat="38.142939" lon="-77.814765">
        <ele>116.223396</ele>
        <time>2024-05-12T08:49:47.000Z</time>
      </trkpt>
      <trkpt lat="38.142809" lon="-77.815357">
        <ele>116.379422</ele>
        <time>2024-05-12T08:49:52.000Z</time>
      </trkpt>
      <trkpt lat="38.142675" lon="-77.81568">
        <ele>116.473301</ele>
        <time>2024-05-12T08:49:55.000Z</time>
      </trkpt>
      <trkpt lat="38.142216" lon="-77.816448">
        <ele>116.893908</ele>
        <time>2024-05-12T08:50:03.000Z</time>
      </trkpt>
      <trkpt lat="38.141885" lon="-77.81688">
        <ele>117.313137</ele>
        <time>2024-05-12T08:50:08.000Z</time>
      </trkpt>
      <trkpt lat="38.141283" lon="-77.817393">
        <ele>117.944042</ele>
        <time>2024-05-12T08:50:16.000Z</time>
      </trkpt>
      <trkpt lat="38.140189" lon="-77.817962">
        <ele>117.864479</ele>
        <time>2024-05-12T08:50:29.000Z</time>
      </trkpt>
      <trkpt lat="38.139436" lon="-77.818277">
        <ele>117.575137</ele>
        <time>2024-05-12T08:50:38.000Z</time>
      </trkpt>
      <trkpt lat="38.139053" lon="-77.818302">
        <ele>117.3958</ele>
        <time>2024-05-12T08:50:42.000Z</time>
      </trkpt>
      <trkpt lat="38.138302" lon="-77.818127">
        <ele>117.011258</ele>
        <time>2024-05-12T08:50:50.000Z</time>
      </trkpt>
      <trkpt lat="38.137476" lon="-77.817815">
        <ele>116.626491</ele>
        <time>2024-05-12T08:51:00.000Z</time>
      </trkpt>
      <trkpt lat="38.136662" lon="-77.817757">
        <ele>116.546015</ele>
        <time>2024-05-12T08:51:09.000Z</time>
      </trkpt>
      <trkpt lat="38.135808" lon="-77.817552">
        <ele>116.461389</ele>
        <time>2024-05-12T08:51:19.000Z</time>
      </trkpt>
      <trkpt lat="38.135375" lon="-77.817605">
        <ele>116.322049</ele>
        <time>2024-05-12T08:51:24.000Z</time>
      </trkpt>
      <trkpt lat="38.134939" lon="-77.817793">
        <ele>116.173169</ele>
        <time>2024-05-12T08:51:29.000Z</time>
      </trkpt>
      <trkpt lat="38.133385" lon="-77.818664">
        <ele>115.666702</ele>
        <time>2024-05-12T08:51:48.000Z</time>
      </trkpt>
      <trkpt lat="38.133012" lon="-77.818817">
        <ele>115.565113</ele>
        <time>2024-05-12T08:51:52.000Z</time>
      </trkpt>
      <trkpt lat="38.131838" lon="-77.818984">
        <ele>115.28093</ele>
        <time>2024-05-12T08:52:05.000Z</time>
      </trkpt>
      <trkpt lat="38.1312" lon="-77.818888">
        <ele>115.147553</ele>
        <time>2024-05-12T08:52:12.000Z</time>
      </trkpt>
      <trkpt lat="38.130985" lon="-77.818911">
        <ele>115.099825</ele>
        <time>2024-05-12T08:52:14.000Z</time>
      </trkpt>
      <trkpt lat="38.130254" lon="-77.819344">
        <ele>114.939047</ele>
        <time>2024-05-12T08:52:23.000Z</time>
      </trkpt>
      <trkpt lat="38.129343" lon="-77.819606">
        <ele>114.751534</ele>
        <time>2024-05-12T08:52:33.000Z</time>
      </trkpt>
      <trkpt lat="38.128389" lon="-77.820202">
        <ele>114.437293</ele>
        <time>2024-05-12T08:52:45.000Z</time>
      </trkpt>
      <trkpt lat="38.126362" lon="-77.821238">
        <ele>113.648481</ele>
        <time>2024-05-12T08:53:09.000Z</time>
      </trkpt>
      <trkpt lat="38.125323" lon="-77.822172">
        <ele>113.184747</ele>
        <time>2024-05-12T08:53:23.000Z</time>
      </trkpt>
      <trkpt lat="38.124794" lon="-77.82247">
        <ele>112.979302</ele>
        <time>2024-05-12T08:53:29.000Z</time>
      </trkpt>
      <trkpt lat="38.1242" lon="-77.822907">
        <ele>112.734633</ele>
        <time>2024-05-12T08:53:37.000Z</time>
      </trkpt>
      <trkpt lat="38.12305" lon="-77.823245">
        <ele>112.026794</ele>
        <time>2024-05-12T08:53:50.000Z</time>
      </trkpt>
      <trkpt lat="38.122727" lon="-77.823271">
        <ele>111.836453</ele>
        <time>2024-05-12T08:53:54.000Z</time>
      </trkpt>
      <trkpt lat="38.121907" lon="-77.823204">
        <ele>111.574218</ele>
        <time>2024-05-12T08:54:03.000Z</time>
      </trkpt>
      <trkpt lat="38.121133" lon="-77.823295">
        <ele>111.497243</ele>
        <time>2024-05-12T08:54:12.000Z</time>
      </trkpt>
      <trkpt lat="38.120623" lon="-77.823181">
        <ele>111.44723</ele>
        <time>2024-05-12T08:54:18.000Z</time>
      </trkpt>
      <trkpt lat="38.120204" lon="-77.822959">
        <ele>111.490024</ele>
        <time>2024-05-12T08:54:23.000Z</time>
      </trkpt>
      <trkpt lat="38.11998" lon="-77.822869">
        <ele>111.514674</ele>
        <time>2024-05-12T08:54:26.000Z</time>
      </trkpt>
      <trkpt lat="38.11976" lon="-77.822876">
        <ele>111.536363</ele>
        <time>2024-05-12T08:54:28.000Z</time>
      </trkpt>
      <trkpt lat="38.11939" lon="-77.823011">
        <ele>111.578504</ele>
        <time>2024-05-12T08:54:32.000Z</time>
      </trkpt>
      <trkpt lat="38.119162" lon="-77.823187">
        <ele>111.605973</ele>
        <time>2024-05-12T08:54:35.000Z</time>
      </trkpt>
      <trkpt lat="38.118461" lon="-77.823954">
        <ele>111.032482</ele>
        <time>2024-05-12T08:54:45.000Z</time>
      </trkpt>
      <trkpt lat="38.118196" lon="-77.824508">
        <ele>110.558067</ele>
        <time>2024-05-12T08:54:51.000Z</time>
      </trkpt>
      <trkpt lat="38.118146" lon="-77.824849">
        <ele>110.302112</ele>
        <time>2024-05-12T08:54:54.000Z</time>
      </trkpt>
      <trkpt lat="38.118131" lon="-77.825707">
        <ele>109.090375</ele>
        <time>2024-05-12T08:55:02.000Z</time>
      </trkpt>
      <trkpt lat="38.118026" lon="-77.826545">
        <ele>107.275395</ele>
        <time>2024-05-12T08:55:09.000Z</time>
      </trkpt>
      <trkpt lat="38.118015" lon="-77.828489">
        <ele>103.101992</ele>
        <time>2024-05-12T08:55:26.000Z</time>
      </trkpt>
      <trkpt lat="38.117948" lon="-77.828903">
        <ele>102.221265</ele>
        <time>2024-05-12T08:55:30.000Z</time>
      </trkpt>
      <trkpt lat="38.117683" lon="-77.829345">
        <ele>101.059299</ele>
        <time>2024-05-12T08:55:35.000Z</time>
      </trkpt>
      <trkpt lat="38.117252" lon="-77.82986">
        <ele>99.598459</ele>
        <time>2024-05-12T08:55:42.000Z</time>
      </trkpt>
      <trkpt lat="38.116461" lon="-77.83106">
        <ele>96.95639</ele>
        <time>2024-05-12T08:55:56.000Z</time>
      </trkpt>
      <trkpt lat="38.116272" lon="-77.831228">
        <ele>96.473248</ele>
        <time>2024-05-12T08:55:59.000Z</time>
      </trkpt>
      <trkpt lat="38.115908" lon="-77.831449">
        <ele>95.374725</ele>
        <time>2024-05-12T08:56:03.000Z</time>
      </trkpt>
      <trkpt lat="38.115351" lon="-77.831723">
        <ele>93.741563</ele>
        <time>2024-05-12T08:56:10.000Z</time>
      </trkpt>
      <trkpt lat="38.113868" lon="-77.83296">
        <ele>91.384676</ele>
        <time>2024-05-12T08:56:30.000Z</time>
      </trkpt>
    </trkseg>
  </trk>
</gpx>

<!--
Performance optimized by W3 Total Cache. Learn more: https://www.boldgrid.com/w3-total-cache/?utm_source=w3tc&utm_medium=footer_comment&utm_campaign=free_plugin

Page Caching using Disk: Enhanced{w3tc_pagecache_reject_reason} 

Served from: www.aquabike.world @ 2026-05-10 17:54:43 by W3 Total Cache
-->